Nearby METAR Reports

Here are local weather reports from nearby weather stations and airports.

KHFD - Hartford/Brainar, Connecticut, USA
Distance from station: NE 5mi, 8km
Updated: Mon, 04/22/2019 3:53pm EDT
Overcast
Overcast
 Wind from NE
Wind: NE 9 mph , 15 km/h
Temperature: 64°F , 18°C
Dew Point: 54°F , 12°C
Humidity: 68%
Barometer: 29.95 inHg , 1014.2 hPa
Clouds: Overcast
Visibility: 10 miles , 16 km
Cloud details: Mostly cloudy 6000 ft
Overcast 7500 ft
2019/04/22 19:53 KHFD 221953Z 04008KT 10SM BKN060 OVC075 18/12 A2995 RMK AO2 RAB1857E19 SLP143 P0001 T01780117
KMMK - Meriden, Connecticut, USA
Distance from station: SSW 13mi, 21km
Updated: Mon, 04/22/2019 3:53pm EDT
Light rain, Overcast
Light rain, Overcast
 Wind from NE
Wind: NE 5 mph , 7 km/h
Temperature: 61°F , 16°C
Dew Point: 52°F , 11°C
Humidity: 72%
Barometer: 29.96 inHg , 1014.6 hPa
Summary: Light rain
Clouds: Overcast
Visibility: 10 miles , 16 km
Cloud details: Overcast 5500 ft
2019/04/22 19:53 KMMK 221953Z AUTO 05004KT 10SM -RA OVC055 16/11 A2996 RMK AO2 SLP144 P0005 T01560111
 
KBDL - Windsor Locks, Connecticut, USA
Distance from station: N 17mi, 28km
Updated: Mon, 04/22/2019 3:51pm EDT
Light rain, Overcast
Light rain, Overcast
 Wind from NE
Wind: NE 10 mph , 17 km/h
Temperature: 63°F , 17°C
Dew Point: 57°F , 14°C
Humidity: 83%
Barometer: 29.97 inHg , 1014.9 hPa
Summary: Light rain
Clouds: Overcast
Visibility: 10 miles , 16 km
Cloud details: Few Clouds 1500 ft
Partly cloudy 3500 ft
Mostly cloudy 11000 ft
Overcast 14000 ft
2019/04/22 19:51 KBDL 221951Z 04009KT 10SM -RA FEW015 SCT035 BKN110 OVC140 17/14 A2997 RMK AO2 SLP147 P0006 T01670139
KSNC - Chester, Connecticut, USA
Distance from station: SSE 24mi, 38km
Updated: Mon, 04/22/2019 3:55pm EDT
Overcast
Overcast
 Wind from N
Wind: N 7 mph , 11 km/h, Gust: 20 mph , 31 km/h
Temperature: 57°F , 14°C
Dew Point: 54°F , 12°C
Humidity: 88%
Barometer: 29.96 inHg , 1014.6 hPa
Clouds: Overcast
Visibility: 9 miles , 14 km
Cloud details: Partly cloudy 1700 ft
Mostly cloudy 2500 ft
Overcast 3500 ft
2019/04/22 19:55 KSNC 221955Z AUTO 01006G17KT 9SM SCT017 BKN025 OVC035 14/12 A2996 RMK AO2
 
KOXC - Oxford/Waterbury, Connecticut, USA
Distance from station: SW 26mi, 42km
Updated: Mon, 04/22/2019 3:51pm EDT
Light rain, Overcast
Light rain, Overcast
 Wind from NE
Wind: NE 13 mph , 20 km/h, Gust: 20 mph , 31 km/h
Temperature: 59°F , 15°C
Dew Point: 52°F , 11°C
Humidity: 77%
Barometer: 29.98 inHg , 1015.2 hPa
Summary: Light rain
Clouds: Overcast
Visibility: 10 miles , 16 km
Cloud details: Few Clouds 2700 ft
Mostly cloudy 4500 ft
Overcast 5500 ft
2019/04/22 19:51 KOXC 221951Z 04011G17KT 10SM -RA FEW027 BKN045 OVC055 15/11 A2998 RMK AO2 SLP164 P0014 T01500111
KIJD - Willimantic, Connecticut, USA
Distance from station: E 28mi, 45km
Updated: Mon, 04/22/2019 3:52pm EDT
Overcast
Overcast
 Wind from NNE
Wind: NNE 13 mph , 20 km/h, Gust: 22 mph , 35 km/h
Temperature: 59°F , 15°C
Dew Point: 48°F , 9°C
Humidity: 68%
Barometer: 29.97 inHg , 1014.9 hPa
Clouds: Overcast
Visibility: 10 miles , 16 km
Cloud details: Overcast 7000 ft
2019/04/22 19:52 KIJD 221952Z AUTO 03011G19KT 10SM OVC070 15/09 A2997 RMK AO2 PK WND 05026/1856 SLP149 T01500094
 
KHVN - New Haven/Tweed, Connecticut, USA
Distance from station: SSW 30mi, 48km
Updated: Mon, 04/22/2019 3:58pm EDT
Heavy rain, Mist, Overcast
Heavy rain, Mist, Overcast
 Wind from SSE
Wind: SSE 13 mph , 20 km/h
Temperature: 57°F , 14°C
Dew Point: 54°F , 12°C
Humidity: 88%
Barometer: 29.99 inHg , 1015.6 hPa
Summary: Heavy rain, Mist
Clouds: Overcast
Visibility: 3/4 mile , 1.2 km
Cloud details: Few Clouds 800 ft
Mostly cloudy 2500 ft
Overcast 4600 ft
2019/04/22 19:58 KHVN 221958Z 16011KT 3/4SM R02/3500V5500FT +RA BR FEW008 BKN025 OVC046 14/12 A2999 RMK AO2 P0009 T01390122
KBAF - Westfield, Massachusetts, USA
Distance from station: 0 33mi, 54km
Updated: Mon, 04/22/2019 3:53pm EDT
Light rain, Overcast
Light rain, Overcast
 Wind from NNE
Wind: NNE 8 mph , 13 km/h
Temperature: 61°F , 16°C
Dew Point: 54°F , 12°C
Humidity: 77%
Barometer: 29.97 inHg , 1014.9 hPa
Summary: Light rain
Clouds: Overcast
Visibility: 9 miles , 14 km
Cloud details: Overcast 8500 ft
2019/04/22 19:53 KBAF 221953Z 03007KT 9SM -RA OVC085 16/12 A2997 RMK AO2 SLP150 P0003 T01560122
 
KCEF - Chicopee/Westove, Massachusetts, USA
Distance from station: NNE 37mi, 60km
Updated: Mon, 04/22/2019 3:56pm EDT
Light rain, Mist, Overcast
Light rain, Mist, Overcast
 Wind from ENE
Wind: ENE 12 mph , 19 km/h
Temperature: 59°F , 15°C
Dew Point: 55°F , 13°C
Humidity: 88%
Barometer: 29.98 inHg , 1015.2 hPa
Summary: Light rain, Mist
Clouds: Overcast
Visibility: 5 miles , 8 km
Cloud details: Partly cloudy 2500 ft
Mostly cloudy 5000 ft
Overcast 8500 ft
2019/04/22 19:56 KCEF 221956Z 06010KT 5SM -RA BR SCT025 BKN050 OVC085 15/13 A2998 RMK AO2A SLP159 P0008 T01520134
KBDR - Bridgeport, Connecticut, USA
Distance from station: SSW 42mi, 67km
Updated: Mon, 04/22/2019 4:05pm EDT
Heavy rain, Mist, Overcast
Heavy rain, Mist, Overcast
 Wind from ESE
Wind: ESE 10 mph , 17 km/h
Temperature: 55°F , 13°C
Dew Point: 54°F , 12°C
Humidity: 94%
Barometer: 30.00 inHg , 1015.9 hPa
Summary: Heavy rain, Mist
Clouds: Overcast
Visibility: 2 miles , 3 km
Cloud details: Few Clouds 400 ft
Mostly cloudy 1800 ft
Overcast 3500 ft
2019/04/22 20:05 KBDR 222005Z 12009KT 2SM +RA BR FEW004 BKN018 OVC035 13/12 A3000 RMK AO2 P0006 T01330122 $
 
KGON - Groton/New Londo, Connecticut, USA
Distance from station: SE 42mi, 68km
Updated: Mon, 04/22/2019 3:56pm EDT
Heavy rain, Mist, Overcast
Heavy rain, Mist, Overcast
 Wind from ENE
Wind: ENE 7 mph , 11 km/h
Temperature: 55°F , 13°C
Dew Point: 54°F , 12°C
Humidity: 94%
Barometer: 29.96 inHg , 1014.6 hPa
Summary: Heavy rain, Mist
Clouds: Overcast
Visibility: 1 1/2 miles , 2.4 km
Cloud details: Mostly cloudy 900 ft
Mostly cloudy 1400 ft
Overcast 2100 ft
2019/04/22 19:56 KGON 221956Z 07006KT 1 1/2SM R05/3000VP6000FT +RA BR BKN009 BKN014 OVC021 13/12 A2996 RMK AO2 WSHFT 1934 SLP146 P0029 T01280117
KDXR - Danbury, Connecticut, USA
Distance from station: WSW 45mi, 73km
Updated: Mon, 04/22/2019 3:53pm EDT
Light rain, Overcast
Light rain, Overcast
 Wind from N
Wind: N 7 mph , 11 km/h
Temperature: 64°F , 18°C
Dew Point: 52°F , 11°C
Humidity: 64%
Barometer: 29.96 inHg , 1014.6 hPa
Summary: Light rain
Clouds: Overcast
Visibility: 8 miles , 13 km
Cloud details: Mostly cloudy 5000 ft
Overcast 5500 ft
2019/04/22 19:53 KDXR 221953Z 36006KT 8SM -RA BKN050 OVC055 18/11 A2996 RMK AO2 RAB19 SLP146 P0000 T01830106